Terminal Aerodrome Forecast
Issued by NWS

Home | Current Version | Previous Version | Text Only | Print | Product List | Glossary On
Versions: 1 2 3 4 5 6 7 8 9 10 11 12 13 14 15 16 17 18 19 20
000
FTUS43 KDLH 282104 AAA
TAFHIB
TAF AMD
KHIB 282104Z 2821/2918 22010G19KT P6SM SCT030 BKN050
     FM282300 22012G23KT P6SM VCTS SCT035CB
      TEMPO 2823/2901 -TSRA SCT025 BKN035CB
     FM290100 23015G25KT P6SM FEW050
     FM290500 25009KT P6SM SKC WS010/25040KT
     FM291400 27018G35KT P6SM OVC050=

USA.gov is the U.S. government's official web portal to all federal, state and local government web resources and services.